KAUS/AUS METAR and TAF weather

Enter ICAO airport designator
Station Type Date Time Source
KAUS METAR 2022/06/26 09:07 UTC NOAA

KAUS 260907Z 19003KT 10SM BKN013 22/20 A3005 RMK AO2 T02220200


Station Type Date Time Source
KAUS Decoded METAR 2022/06/26 09:07 UTC NOAA

AUSTIN-BERGSTROM INTERNATIONAL AIRPORT, TX, United States (KAUS) 30-11N 097-41W 172M
Jun 26, 2022 - 05:07 AM EDT / 2022.06.26 0907 UTC
Wind: from the S (190 degrees) at 3 MPH (3 KT):0
Visibility: 10 mile(s):0
Sky conditions: mostly cloudy
Temperature: 72.0 F (22.2 C)
Dew Point: 68.0 F (20.0 C)
Relative Humidity: 87%
Pressure (altimeter): 30.05 in. Hg (1017 hPa)
ob: KAUS 260907Z 19003KT 10SM BKN013 22/20 A3005 RMK AO2 T02220200
cycle: 9

Station Type Date Time Source
KAUS TAF 2022/06/26 06:22 UTC NOAA

TAF KAUS 260520Z 2606/2712 18006KT P6SM FEW250
FM261700 15006KT P6SM FEW080 FEW250
FM261900 12010KT P6SM FEW080 FEW250
FM270300 16009KT P6SM FEW080 FEW250 PROB30 2706/2712 P6SM TSRA BKN050CB

Example: see airport list